sensor_id;sensor_type;location;lat;lon;timestamp;P1;durP1;ratioP1;P2;durP2;ratioP2
140;SDS011;65;48.778;9.160;2023-08-06T00:00:24;8.48;;;4.68;;
140;SDS011;65;48.778;9.160;2023-08-06T00:03:10;7.38;;;4.70;;
140;SDS011;65;48.778;9.160;2023-08-06T00:05:55;7.95;;;4.20;;
140;SDS011;65;48.778;9.160;2023-08-06T00:08:41;6.15;;;4.00;;
140;SDS011;65;48.778;9.160;2023-08-06T00:11:27;7.43;;;4.40;;
140;SDS011;65;48.778;9.160;2023-08-06T00:14:13;6.25;;;3.97;;
140;SDS011;65;48.778;9.160;2023-08-06T00:17:00;9.02;;;4.00;;
140;SDS011;65;48.778;9.160;2023-08-06T00:19:46;7.90;;;4.63;;
140;SDS011;65;48.778;9.160;2023-08-06T00:22:32;6.30;;;4.10;;
140;SDS011;65;48.778;9.160;2023-08-06T00:25:19;6.60;;;3.90;;
140;SDS011;65;48.778;9.160;2023-08-06T00:28:05;6.95;;;3.90;;
140;SDS011;65;48.778;9.160;2023-08-06T00:30:54;6.38;;;4.22;;
140;SDS011;65;48.778;9.160;2023-08-06T00:33:40;6.65;;;4.15;;
140;SDS011;65;48.778;9.160;2023-08-06T00:36:26;6.43;;;3.60;;
140;SDS011;65;48.778;9.160;2023-08-06T00:39:12;6.03;;;3.80;;
140;SDS011;65;48.778;9.160;2023-08-06T00:41:57;4.90;;;3.38;;
140;SDS011;65;48.778;9.160;2023-08-06T00:44:43;7.03;;;3.63;;
140;SDS011;65;48.778;9.160;2023-08-06T00:47:29;4.72;;;3.03;;
140;SDS011;65;48.778;9.160;2023-08-06T00:50:15;5.00;;;3.03;;
140;SDS011;65;48.778;9.160;2023-08-06T00:53:01;5.13;;;3.47;;
140;SDS011;65;48.778;9.160;2023-08-06T00:55:47;6.55;;;3.80;;
140;SDS011;65;48.778;9.160;2023-08-06T00:58:34;5.40;;;3.25;;
140;SDS011;65;48.778;9.160;2023-08-06T01:01:21;5.32;;;3.60;;
140;SDS011;65;48.778;9.160;2023-08-06T01:04:07;5.80;;;3.95;;
140;SDS011;65;48.778;9.160;2023-08-06T01:13:11;6.72;;;4.03;;
140;SDS011;65;48.778;9.160;2023-08-06T01:16:09;5.97;;;3.80;;
140;SDS011;65;48.778;9.160;2023-08-06T01:18:56;6.50;;;3.92;;
140;SDS011;65;48.778;9.160;2023-08-06T01:21:43;6.38;;;3.72;;
140;SDS011;65;48.778;9.160;2023-08-06T01:24:29;6.47;;;3.60;;
140;SDS011;65;48.778;9.160;2023-08-06T01:27:17;6.53;;;3.75;;
140;SDS011;65;48.778;9.160;2023-08-06T01:33:05;5.50;;;3.70;;
140;SDS011;65;48.778;9.160;2023-08-06T01:35:55;4.80;;;3.20;;
140;SDS011;65;48.778;9.160;2023-08-06T01:38:41;6.30;;;3.20;;
140;SDS011;65;48.778;9.160;2023-08-06T01:41:27;4.35;;;2.75;;
140;SDS011;65;48.778;9.160;2023-08-06T01:44:13;5.43;;;2.90;;
140;SDS011;65;48.778;9.160;2023-08-06T01:46:59;4.82;;;2.58;;
140;SDS011;65;48.778;9.160;2023-08-06T01:49:44;4.45;;;2.80;;
140;SDS011;65;48.778;9.160;2023-08-06T01:52:30;4.13;;;2.55;;
140;SDS011;65;48.778;9.160;2023-08-06T01:55:16;3.33;;;2.20;;
140;SDS011;65;48.778;9.160;2023-08-06T01:58:03;4.43;;;2.67;;
140;SDS011;65;48.778;9.160;2023-08-06T02:00:49;4.75;;;2.97;;
140;SDS011;65;48.778;9.160;2023-08-06T02:03:35;4.85;;;2.85;;
140;SDS011;65;48.778;9.160;2023-08-06T02:06:20;4.97;;;2.92;;
140;SDS011;65;48.778;9.160;2023-08-06T02:09:06;4.93;;;2.67;;
140;SDS011;65;48.778;9.160;2023-08-06T02:11:52;5.65;;;2.83;;
140;SDS011;65;48.778;9.160;2023-08-06T02:14:38;6.30;;;2.92;;
140;SDS011;65;48.778;9.160;2023-08-06T02:17:23;3.63;;;2.47;;
140;SDS011;65;48.778;9.160;2023-08-06T02:20:09;4.90;;;2.90;;
140;SDS011;65;48.778;9.160;2023-08-06T02:22:55;3.88;;;2.65;;
140;SDS011;65;48.778;9.160;2023-08-06T02:25:41;4.70;;;2.58;;
140;SDS011;65;48.778;9.160;2023-08-06T02:28:26;4.18;;;2.67;;
140;SDS011;65;48.778;9.160;2023-08-06T02:31:13;4.50;;;2.83;;
140;SDS011;65;48.778;9.160;2023-08-06T02:33:59;5.47;;;3.00;;
140;SDS011;65;48.778;9.160;2023-08-06T02:36:44;7.55;;;2.90;;
140;SDS011;65;48.778;9.160;2023-08-06T02:39:30;4.65;;;2.40;;
140;SDS011;65;48.778;9.160;2023-08-06T02:42:16;4.45;;;2.72;;
140;SDS011;65;48.778;9.160;2023-08-06T02:45:02;4.10;;;2.70;;
140;SDS011;65;48.778;9.160;2023-08-06T02:47:48;5.63;;;2.85;;
140;SDS011;65;48.778;9.160;2023-08-06T02:50:37;4.93;;;2.97;;
140;SDS011;65;48.778;9.160;2023-08-06T02:53:27;5.25;;;2.70;;
140;SDS011;65;48.778;9.160;2023-08-06T02:56:12;5.07;;;2.53;;
140;SDS011;65;48.778;9.160;2023-08-06T02:58:58;4.07;;;2.63;;
140;SDS011;65;48.778;9.160;2023-08-06T03:01:45;4.55;;;2.88;;
140;SDS011;65;48.778;9.160;2023-08-06T03:04:31;5.32;;;2.90;;
140;SDS011;65;48.778;9.160;2023-08-06T03:07:16;4.50;;;2.80;;
140;SDS011;65;48.778;9.160;2023-08-06T03:10:02;4.18;;;2.45;;
140;SDS011;65;48.778;9.160;2023-08-06T03:12:48;5.63;;;2.67;;
140;SDS011;65;48.778;9.160;2023-08-06T03:15:34;4.85;;;2.55;;
140;SDS011;65;48.778;9.160;2023-08-06T03:18:21;4.43;;;2.40;;
140;SDS011;65;48.778;9.160;2023-08-06T03:21:07;4.32;;;2.20;;
140;SDS011;65;48.778;9.160;2023-08-06T03:23:53;4.50;;;2.50;;
140;SDS011;65;48.778;9.160;2023-08-06T03:26:39;4.72;;;2.30;;
140;SDS011;65;48.778;9.160;2023-08-06T03:29:24;3.20;;;2.15;;
140;SDS011;65;48.778;9.160;2023-08-06T03:32:10;3.15;;;2.03;;
140;SDS011;65;48.778;9.160;2023-08-06T03:34:56;4.63;;;2.33;;
140;SDS011;65;48.778;9.160;2023-08-06T03:37:42;5.30;;;2.30;;
140;SDS011;65;48.778;9.160;2023-08-06T03:40:27;3.67;;;2.17;;
140;SDS011;65;48.778;9.160;2023-08-06T03:43:13;4.50;;;2.15;;
140;SDS011;65;48.778;9.160;2023-08-06T03:45:59;4.10;;;2.35;;
140;SDS011;65;48.778;9.160;2023-08-06T03:48:45;5.07;;;2.45;;
140;SDS011;65;48.778;9.160;2023-08-06T03:51:31;4.50;;;2.35;;
140;SDS011;65;48.778;9.160;2023-08-06T03:54:16;4.10;;;2.10;;
140;SDS011;65;48.778;9.160;2023-08-06T03:57:02;4.95;;;2.08;;
140;SDS011;65;48.778;9.160;2023-08-06T03:59:48;4.07;;;2.30;;
140;SDS011;65;48.778;9.160;2023-08-06T04:02:34;4.25;;;2.40;;
140;SDS011;65;48.778;9.160;2023-08-06T04:05:20;5.32;;;2.80;;
140;SDS011;65;48.778;9.160;2023-08-06T04:08:05;4.45;;;2.50;;
140;SDS011;65;48.778;9.160;2023-08-06T04:10:52;4.05;;;2.63;;
140;SDS011;65;48.778;9.160;2023-08-06T04:13:38;4.50;;;2.67;;
140;SDS011;65;48.778;9.160;2023-08-06T04:16:24;5.40;;;3.10;;
140;SDS011;65;48.778;9.160;2023-08-06T04:19:11;3.78;;;2.28;;
140;SDS011;65;48.778;9.160;2023-08-06T04:21:57;4.63;;;2.67;;
140;SDS011;65;48.778;9.160;2023-08-06T04:24:43;7.43;;;3.03;;
140;SDS011;65;48.778;9.160;2023-08-06T04:27:28;5.80;;;3.05;;
140;SDS011;65;48.778;9.160;2023-08-06T04:30:14;5.28;;;2.85;;
140;SDS011;65;48.778;9.160;2023-08-06T04:33:00;6.95;;;3.10;;
140;SDS011;65;48.778;9.160;2023-08-06T04:35:46;4.97;;;2.63;;
140;SDS011;65;48.778;9.160;2023-08-06T04:38:32;5.10;;;2.78;;
140;SDS011;65;48.778;9.160;2023-08-06T04:41:17;3.55;;;2.22;;
140;SDS011;65;48.778;9.160;2023-08-06T04:44:03;4.05;;;2.30;;
140;SDS011;65;48.778;9.160;2023-08-06T04:46:49;5.20;;;2.50;;
140;SDS011;65;48.778;9.160;2023-08-06T04:49:35;5.07;;;2.30;;
140;SDS011;65;48.778;9.160;2023-08-06T04:52:21;4.45;;;2.10;;
140;SDS011;65;48.778;9.160;2023-08-06T04:55:07;4.30;;;2.22;;
140;SDS011;65;48.778;9.160;2023-08-06T04:57:53;4.93;;;2.00;;
140;SDS011;65;48.778;9.160;2023-08-06T05:00:38;4.68;;;2.00;;
140;SDS011;65;48.778;9.160;2023-08-06T05:03:24;3.83;;;1.90;;
140;SDS011;65;48.778;9.160;2023-08-06T05:06:10;4.28;;;2.25;;
140;SDS011;65;48.778;9.160;2023-08-06T05:08:56;5.03;;;2.20;;
140;SDS011;65;48.778;9.160;2023-08-06T05:11:42;4.47;;;2.00;;
140;SDS011;65;48.778;9.160;2023-08-06T05:14:27;6.28;;;1.90;;
140;SDS011;65;48.778;9.160;2023-08-06T05:17:13;4.93;;;1.65;;
140;SDS011;65;48.778;9.160;2023-08-06T05:19:59;3.63;;;1.52;;
140;SDS011;65;48.778;9.160;2023-08-06T05:22:45;3.05;;;1.80;;
140;SDS011;65;48.778;9.160;2023-08-06T05:25:31;2.63;;;1.63;;
140;SDS011;65;48.778;9.160;2023-08-06T05:28:17;2.15;;;1.60;;
140;SDS011;65;48.778;9.160;2023-08-06T05:31:03;3.55;;;1.48;;
140;SDS011;65;48.778;9.160;2023-08-06T05:33:50;1.42;;;1.30;;
140;SDS011;65;48.778;9.160;2023-08-06T05:36:36;5.45;;;1.50;;
140;SDS011;65;48.778;9.160;2023-08-06T05:39:21;3.72;;;1.48;;
140;SDS011;65;48.778;9.160;2023-08-06T05:42:07;1.90;;;1.42;;
140;SDS011;65;48.778;9.160;2023-08-06T05:44:53;2.55;;;1.27;;
140;SDS011;65;48.778;9.160;2023-08-06T05:47:38;2.22;;;1.40;;
140;SDS011;65;48.778;9.160;2023-08-06T05:50:24;3.38;;;1.52;;
140;SDS011;65;48.778;9.160;2023-08-06T05:53:10;3.05;;;1.40;;
140;SDS011;65;48.778;9.160;2023-08-06T05:55:56;2.50;;;1.50;;
140;SDS011;65;48.778;9.160;2023-08-06T05:58:42;1.20;;;0.70;;
140;SDS011;65;48.778;9.160;2023-08-06T06:01:27;2.65;;;1.17;;
140;SDS011;65;48.778;9.160;2023-08-06T06:04:13;1.45;;;1.00;;
140;SDS011;65;48.778;9.160;2023-08-06T06:06:59;1.42;;;0.80;;
140;SDS011;65;48.778;9.160;2023-08-06T06:09:44;2.63;;;1.10;;
140;SDS011;65;48.778;9.160;2023-08-06T06:12:30;1.75;;;1.00;;
140;SDS011;65;48.778;9.160;2023-08-06T06:15:16;1.60;;;0.82;;
140;SDS011;65;48.778;9.160;2023-08-06T06:18:02;0.85;;;0.73;;
140;SDS011;65;48.778;9.160;2023-08-06T06:20:48;1.55;;;0.60;;
140;SDS011;65;48.778;9.160;2023-08-06T06:23:33;0.75;;;0.70;;
140;SDS011;65;48.778;9.160;2023-08-06T06:26:19;3.92;;;0.95;;
140;SDS011;65;48.778;9.160;2023-08-06T06:29:05;1.20;;;0.80;;
140;SDS011;65;48.778;9.160;2023-08-06T06:31:51;3.42;;;0.90;;
140;SDS011;65;48.778;9.160;2023-08-06T06:34:36;2.78;;;0.98;;
140;SDS011;65;48.778;9.160;2023-08-06T06:37:22;4.13;;;0.93;;
140;SDS011;65;48.778;9.160;2023-08-06T06:40:08;4.13;;;1.15;;
140;SDS011;65;48.778;9.160;2023-08-06T06:42:54;2.17;;;0.85;;
140;SDS011;65;48.778;9.160;2023-08-06T06:45:39;1.65;;;0.73;;
140;SDS011;65;48.778;9.160;2023-08-06T06:48:26;2.17;;;1.00;;
140;SDS011;65;48.778;9.160;2023-08-06T06:51:13;1.10;;;0.70;;
140;SDS011;65;48.778;9.160;2023-08-06T06:53:59;2.08;;;0.70;;
140;SDS011;65;48.778;9.160;2023-08-06T06:56:44;0.63;;;0.60;;
140;SDS011;65;48.778;9.160;2023-08-06T06:59:31;0.90;;;0.77;;
140;SDS011;65;48.778;9.160;2023-08-06T07:02:16;2.08;;;0.70;;
140;SDS011;65;48.778;9.160;2023-08-06T07:05:02;1.20;;;0.75;;
140;SDS011;65;48.778;9.160;2023-08-06T07:07:48;1.95;;;0.80;;
140;SDS011;65;48.778;9.160;2023-08-06T07:10:34;1.75;;;0.80;;
140;SDS011;65;48.778;9.160;2023-08-06T07:13:19;1.40;;;0.70;;
140;SDS011;65;48.778;9.160;2023-08-06T07:16:05;0.68;;;0.40;;
140;SDS011;65;48.778;9.160;2023-08-06T07:18:51;2.03;;;0.80;;
140;SDS011;65;48.778;9.160;2023-08-06T07:21:38;2.55;;;0.90;;
140;SDS011;65;48.778;9.160;2023-08-06T07:24:24;1.65;;;0.88;;
140;SDS011;65;48.778;9.160;2023-08-06T07:27:10;1.55;;;0.93;;
140;SDS011;65;48.778;9.160;2023-08-06T07:29:55;0.85;;;0.50;;
140;SDS011;65;48.778;9.160;2023-08-06T07:32:41;1.98;;;1.00;;
140;SDS011;65;48.778;9.160;2023-08-06T07:35:28;0.50;;;0.45;;
140;SDS011;65;48.778;9.160;2023-08-06T07:38:14;1.73;;;0.70;;
140;SDS011;65;48.778;9.160;2023-08-06T07:41:01;2.45;;;0.80;;
140;SDS011;65;48.778;9.160;2023-08-06T07:43:47;0.55;;;0.50;;
140;SDS011;65;48.778;9.160;2023-08-06T07:46:33;2.75;;;0.60;;
140;SDS011;65;48.778;9.160;2023-08-06T07:49:19;1.50;;;0.45;;
140;SDS011;65;48.778;9.160;2023-08-06T07:52:05;3.30;;;0.80;;
140;SDS011;65;48.778;9.160;2023-08-06T07:54:51;0.25;;;0.25;;
140;SDS011;65;48.778;9.160;2023-08-06T07:57:37;0.43;;;0.43;;
140;SDS011;65;48.778;9.160;2023-08-06T08:00:23;0.50;;;0.40;;
140;SDS011;65;48.778;9.160;2023-08-06T08:03:09;1.13;;;0.50;;
140;SDS011;65;48.778;9.160;2023-08-06T08:05:55;1.08;;;0.57;;
140;SDS011;65;48.778;9.160;2023-08-06T08:08:44;0.30;;;0.20;;
140;SDS011;65;48.778;9.160;2023-08-06T08:11:29;0.77;;;0.25;;
140;SDS011;65;48.778;9.160;2023-08-06T08:14:15;1.05;;;0.40;;
140;SDS011;65;48.778;9.160;2023-08-06T08:17:02;0.35;;;0.10;;
140;SDS011;65;48.778;9.160;2023-08-06T08:19:48;0.73;;;0.43;;
140;SDS011;65;48.778;9.160;2023-08-06T08:22:34;0.30;;;0.20;;
140;SDS011;65;48.778;9.160;2023-08-06T08:25:20;0.57;;;0.30;;
140;SDS011;65;48.778;9.160;2023-08-06T08:28:05;0.30;;;0.17;;
140;SDS011;65;48.778;9.160;2023-08-06T08:30:52;0.95;;;0.70;;
140;SDS011;65;48.778;9.160;2023-08-06T08:33:38;0.45;;;0.30;;
140;SDS011;65;48.778;9.160;2023-08-06T08:36:23;0.20;;;0.20;;
140;SDS011;65;48.778;9.160;2023-08-06T08:39:09;0.20;;;0.20;;
140;SDS011;65;48.778;9.160;2023-08-06T08:41:55;0.35;;;0.10;;
140;SDS011;65;48.778;9.160;2023-08-06T08:44:41;0.85;;;0.30;;
140;SDS011;65;48.778;9.160;2023-08-06T08:47:28;1.33;;;0.80;;
140;SDS011;65;48.778;9.160;2023-08-06T08:50:14;0.77;;;0.50;;
140;SDS011;65;48.778;9.160;2023-08-06T08:53:02;0.32;;;0.15;;
140;SDS011;65;48.778;9.160;2023-08-06T08:55:48;0.30;;;0.10;;
140;SDS011;65;48.778;9.160;2023-08-06T08:58:34;0.75;;;0.43;;
140;SDS011;65;48.778;9.160;2023-08-06T09:01:23;1.55;;;0.43;;
140;SDS011;65;48.778;9.160;2023-08-06T09:04:10;0.22;;;0.20;;
140;SDS011;65;48.778;9.160;2023-08-06T09:06:57;1.20;;;0.25;;
140;SDS011;65;48.778;9.160;2023-08-06T09:09:45;0.08;;;0.08;;
140;SDS011;65;48.778;9.160;2023-08-06T09:12:33;0.50;;;0.38;;
140;SDS011;65;48.778;9.160;2023-08-06T09:15:20;0.28;;;0.20;;
140;SDS011;65;48.778;9.160;2023-08-06T09:18:09;0.30;;;0.20;;
140;SDS011;65;48.778;9.160;2023-08-06T09:20:56;0.10;;;0.10;;
140;SDS011;65;48.778;9.160;2023-08-06T09:23:42;1.08;;;0.50;;
140;SDS011;65;48.778;9.160;2023-08-06T09:26:32;0.98;;;0.13;;
140;SDS011;65;48.778;9.160;2023-08-06T09:29:19;1.13;;;0.30;;
140;SDS011;65;48.778;9.160;2023-08-06T09:32:05;0.05;;;0.05;;
140;SDS011;65;48.778;9.160;2023-08-06T09:34:55;0.17;;;0.17;;
140;SDS011;65;48.778;9.160;2023-08-06T09:37:41;1.02;;;0.20;;
140;SDS011;65;48.778;9.160;2023-08-06T09:40:28;1.45;;;0.47;;
140;SDS011;65;48.778;9.160;2023-08-06T09:43:18;2.03;;;0.28;;
140;SDS011;65;48.778;9.160;2023-08-06T09:46:10;0.50;;;0.28;;
140;SDS011;65;48.778;9.160;2023-08-06T09:48:59;0.30;;;0.10;;
140;SDS011;65;48.778;9.160;2023-08-06T09:51:46;0.47;;;0.47;;
140;SDS011;65;48.778;9.160;2023-08-06T09:54:36;0.10;;;0.10;;
140;SDS011;65;48.778;9.160;2023-08-06T09:57:23;0.93;;;0.20;;
140;SDS011;65;48.778;9.160;2023-08-06T10:00:10;0.20;;;0.20;;
140;SDS011;65;48.778;9.160;2023-08-06T10:02:59;0.55;;;0.25;;
140;SDS011;65;48.778;9.160;2023-08-06T10:05:45;0.63;;;0.30;;
140;SDS011;65;48.778;9.160;2023-08-06T10:08:32;0.05;;;0.05;;
140;SDS011;65;48.778;9.160;2023-08-06T10:11:18;0.35;;;0.30;;
140;SDS011;65;48.778;9.160;2023-08-06T10:14:08;0.20;;;0.20;;
140;SDS011;65;48.778;9.160;2023-08-06T10:16:58;0.20;;;0.20;;
140;SDS011;65;48.778;9.160;2023-08-06T10:19:45;0.80;;;0.40;;
140;SDS011;65;48.778;9.160;2023-08-06T10:22:33;0.10;;;0.10;;
140;SDS011;65;48.778;9.160;2023-08-06T10:25:19;0.13;;;0.13;;
140;SDS011;65;48.778;9.160;2023-08-06T10:28:09;0.95;;;0.20;;
140;SDS011;65;48.778;9.160;2023-08-06T10:30:55;0.17;;;0.13;;
140;SDS011;65;48.778;9.160;2023-08-06T10:33:47;0.20;;;0.20;;
140;SDS011;65;48.778;9.160;2023-08-06T10:36:33;1.27;;;0.30;;
140;SDS011;65;48.778;9.160;2023-08-06T10:39:19;0.60;;;0.57;;
140;SDS011;65;48.778;9.160;2023-08-06T10:42:05;0.25;;;0.25;;
140;SDS011;65;48.778;9.160;2023-08-06T10:48:00;0.90;;;0.40;;
140;SDS011;65;48.778;9.160;2023-08-06T10:50:46;1.83;;;0.45;;
140;SDS011;65;48.778;9.160;2023-08-06T10:53:31;0.43;;;0.20;;
140;SDS011;65;48.778;9.160;2023-08-06T10:56:18;0.25;;;0.20;;
140;SDS011;65;48.778;9.160;2023-08-06T10:59:05;0.32;;;0.32;;
140;SDS011;65;48.778;9.160;2023-08-06T11:01:52;0.38;;;0.20;;
140;SDS011;65;48.778;9.160;2023-08-06T11:04:38;0.25;;;0.25;;
140;SDS011;65;48.778;9.160;2023-08-06T11:07:24;0.52;;;0.22;;
140;SDS011;65;48.778;9.160;2023-08-06T11:10:23;0.35;;;0.32;;
140;SDS011;65;48.778;9.160;2023-08-06T11:13:10;0.30;;;0.30;;
140;SDS011;65;48.778;9.160;2023-08-06T11:15:55;0.95;;;0.85;;
140;SDS011;65;48.778;9.160;2023-08-06T11:18:43;0.38;;;0.38;;
140;SDS011;65;48.778;9.160;2023-08-06T11:21:29;0.80;;;0.50;;
140;SDS011;65;48.778;9.160;2023-08-06T11:24:15;0.40;;;0.30;;
140;SDS011;65;48.778;9.160;2023-08-06T11:27:02;1.40;;;0.70;;
140;SDS011;65;48.778;9.160;2023-08-06T11:29:57;1.05;;;0.82;;
140;SDS011;65;48.778;9.160;2023-08-06T11:32:46;1.23;;;0.50;;
140;SDS011;65;48.778;9.160;2023-08-06T11:35:36;1.10;;;0.80;;
140;SDS011;65;48.778;9.160;2023-08-06T11:38:29;1.10;;;0.80;;
140;SDS011;65;48.778;9.160;2023-08-06T11:41:15;1.38;;;1.10;;
140;SDS011;65;48.778;9.160;2023-08-06T11:44:01;1.00;;;0.88;;
140;SDS011;65;48.778;9.160;2023-08-06T11:46:51;1.00;;;0.90;;
140;SDS011;65;48.778;9.160;2023-08-06T11:49:47;2.45;;;0.95;;
140;SDS011;65;48.778;9.160;2023-08-06T11:52:34;1.10;;;1.00;;
140;SDS011;65;48.778;9.160;2023-08-06T11:55:24;2.63;;;1.05;;
140;SDS011;65;48.778;9.160;2023-08-06T11:58:11;1.40;;;0.90;;
140;SDS011;65;48.778;9.160;2023-08-06T12:00:57;1.17;;;0.90;;
140;SDS011;65;48.778;9.160;2023-08-06T12:03:43;1.10;;;1.00;;
140;SDS011;65;48.778;9.160;2023-08-06T12:06:29;2.28;;;1.20;;
140;SDS011;65;48.778;9.160;2023-08-06T12:09:15;1.45;;;1.17;;
140;SDS011;65;48.778;9.160;2023-08-06T12:12:01;4.88;;;1.00;;
140;SDS011;65;48.778;9.160;2023-08-06T12:14:47;2.40;;;1.13;;
140;SDS011;65;48.778;9.160;2023-08-06T12:17:33;2.42;;;1.27;;
140;SDS011;65;48.778;9.160;2023-08-06T12:20:19;2.67;;;1.15;;
140;SDS011;65;48.778;9.160;2023-08-06T12:23:05;2.70;;;1.40;;
140;SDS011;65;48.778;9.160;2023-08-06T12:25:51;1.40;;;1.00;;
140;SDS011;65;48.778;9.160;2023-08-06T12:28:40;1.83;;;1.30;;
140;SDS011;65;48.778;9.160;2023-08-06T12:31:26;3.38;;;1.30;;
140;SDS011;65;48.778;9.160;2023-08-06T12:34:11;3.47;;;1.45;;
140;SDS011;65;48.778;9.160;2023-08-06T12:36:57;2.55;;;1.13;;
140;SDS011;65;48.778;9.160;2023-08-06T12:39:43;2.30;;;1.30;;
140;SDS011;65;48.778;9.160;2023-08-06T12:42:29;2.50;;;1.10;;
140;SDS011;65;48.778;9.160;2023-08-06T12:45:15;2.05;;;1.20;;
140;SDS011;65;48.778;9.160;2023-08-06T12:48:01;1.17;;;0.88;;
140;SDS011;65;48.778;9.160;2023-08-06T12:50:46;1.58;;;1.00;;
140;SDS011;65;48.778;9.160;2023-08-06T12:53:34;1.40;;;0.80;;
140;SDS011;65;48.778;9.160;2023-08-06T12:56:21;0.80;;;0.80;;
140;SDS011;65;48.778;9.160;2023-08-06T12:59:07;2.50;;;0.90;;
140;SDS011;65;48.778;9.160;2023-08-06T13:01:52;1.73;;;1.02;;
140;SDS011;65;48.778;9.160;2023-08-06T13:04:38;1.80;;;0.90;;
140;SDS011;65;48.778;9.160;2023-08-06T13:07:25;1.27;;;0.90;;
140;SDS011;65;48.778;9.160;2023-08-06T13:10:11;0.93;;;0.70;;
140;SDS011;65;48.778;9.160;2023-08-06T13:12:56;1.40;;;1.05;;
140;SDS011;65;48.778;9.160;2023-08-06T13:15:42;1.20;;;0.90;;
140;SDS011;65;48.778;9.160;2023-08-06T13:18:28;1.80;;;0.80;;
140;SDS011;65;48.778;9.160;2023-08-06T13:21:14;1.15;;;0.93;;
140;SDS011;65;48.778;9.160;2023-08-06T13:24:03;2.58;;;0.90;;
140;SDS011;65;48.778;9.160;2023-08-06T13:26:49;1.17;;;0.90;;
140;SDS011;65;48.778;9.160;2023-08-06T13:29:35;1.40;;;1.10;;
140;SDS011;65;48.778;9.160;2023-08-06T13:32:21;0.68;;;0.68;;
140;SDS011;65;48.778;9.160;2023-08-06T13:35:06;1.23;;;0.98;;
140;SDS011;65;48.778;9.160;2023-08-06T13:37:52;2.28;;;1.00;;
140;SDS011;65;48.778;9.160;2023-08-06T13:40:39;1.67;;;0.98;;
140;SDS011;65;48.778;9.160;2023-08-06T13:43:25;0.90;;;0.70;;
140;SDS011;65;48.778;9.160;2023-08-06T13:46:11;1.33;;;0.80;;
140;SDS011;65;48.778;9.160;2023-08-06T13:49:01;1.52;;;0.77;;
140;SDS011;65;48.778;9.160;2023-08-06T13:51:47;1.30;;;0.80;;
140;SDS011;65;48.778;9.160;2023-08-06T13:54:33;1.05;;;0.68;;
140;SDS011;65;48.778;9.160;2023-08-06T13:57:18;0.82;;;0.60;;
140;SDS011;65;48.778;9.160;2023-08-06T14:00:04;0.68;;;0.35;;
140;SDS011;65;48.778;9.160;2023-08-06T14:02:51;2.53;;;0.80;;
140;SDS011;65;48.778;9.160;2023-08-06T14:05:36;0.50;;;0.50;;
140;SDS011;65;48.778;9.160;2023-08-06T14:08:25;0.77;;;0.73;;
140;SDS011;65;48.778;9.160;2023-08-06T14:11:11;1.20;;;0.98;;
140;SDS011;65;48.778;9.160;2023-08-06T14:13:57;0.75;;;0.75;;
140;SDS011;65;48.778;9.160;2023-08-06T14:16:42;1.13;;;0.85;;
140;SDS011;65;48.778;9.160;2023-08-06T14:19:28;0.52;;;0.52;;
140;SDS011;65;48.778;9.160;2023-08-06T14:22:15;1.77;;;0.80;;
140;SDS011;65;48.778;9.160;2023-08-06T14:25:01;1.40;;;0.63;;
140;SDS011;65;48.778;9.160;2023-08-06T14:27:46;2.00;;;0.80;;
140;SDS011;65;48.778;9.160;2023-08-06T14:30:32;1.48;;;0.70;;
140;SDS011;65;48.778;9.160;2023-08-06T14:33:18;1.55;;;0.85;;
140;SDS011;65;48.778;9.160;2023-08-06T14:36:04;1.45;;;0.60;;
140;SDS011;65;48.778;9.160;2023-08-06T14:38:50;0.70;;;0.70;;
140;SDS011;65;48.778;9.160;2023-08-06T14:41:36;2.08;;;0.90;;
140;SDS011;65;48.778;9.160;2023-08-06T14:44:22;2.65;;;1.08;;
140;SDS011;65;48.778;9.160;2023-08-06T14:47:08;0.70;;;0.60;;
140;SDS011;65;48.778;9.160;2023-08-06T14:49:53;2.03;;;0.80;;
140;SDS011;65;48.778;9.160;2023-08-06T14:52:39;0.82;;;0.60;;
140;SDS011;65;48.778;9.160;2023-08-06T14:55:25;1.63;;;0.90;;
140;SDS011;65;48.778;9.160;2023-08-06T14:58:12;2.03;;;0.63;;
140;SDS011;65;48.778;9.160;2023-08-06T15:00:57;0.68;;;0.68;;
140;SDS011;65;48.778;9.160;2023-08-06T15:03:45;2.63;;;0.73;;
140;SDS011;65;48.778;9.160;2023-08-06T15:06:31;1.25;;;0.85;;
140;SDS011;65;48.778;9.160;2023-08-06T15:09:17;0.82;;;0.73;;
140;SDS011;65;48.778;9.160;2023-08-06T15:12:03;1.10;;;0.90;;
140;SDS011;65;48.778;9.160;2023-08-06T15:14:49;1.63;;;1.00;;
140;SDS011;65;48.778;9.160;2023-08-06T15:17:34;1.05;;;0.95;;
140;SDS011;65;48.778;9.160;2023-08-06T15:20:21;1.23;;;0.93;;
140;SDS011;65;48.778;9.160;2023-08-06T15:23:08;0.77;;;0.63;;
140;SDS011;65;48.778;9.160;2023-08-06T15:25:54;0.95;;;0.82;;
140;SDS011;65;48.778;9.160;2023-08-06T15:28:41;1.15;;;1.00;;
140;SDS011;65;48.778;9.160;2023-08-06T15:31:35;1.90;;;0.70;;
140;SDS011;65;48.778;9.160;2023-08-06T15:34:22;1.42;;;0.90;;
140;SDS011;65;48.778;9.160;2023-08-06T15:37:08;1.85;;;1.05;;
140;SDS011;65;48.778;9.160;2023-08-06T15:39:54;1.33;;;0.80;;
140;SDS011;65;48.778;9.160;2023-08-06T15:42:39;1.88;;;0.80;;
140;SDS011;65;48.778;9.160;2023-08-06T15:45:25;1.42;;;0.73;;
140;SDS011;65;48.778;9.160;2023-08-06T15:48:12;1.33;;;0.90;;
140;SDS011;65;48.778;9.160;2023-08-06T15:50:58;1.52;;;0.80;;
140;SDS011;65;48.778;9.160;2023-08-06T15:53:43;0.77;;;0.77;;
140;SDS011;65;48.778;9.160;2023-08-06T15:56:29;1.05;;;0.75;;
140;SDS011;65;48.778;9.160;2023-08-06T15:59:31;0.77;;;0.63;;
140;SDS011;65;48.778;9.160;2023-08-06T16:02:17;0.60;;;0.60;;
140;SDS011;65;48.778;9.160;2023-08-06T16:05:04;1.48;;;0.70;;
140;SDS011;65;48.778;9.160;2023-08-06T16:07:50;1.52;;;0.90;;
140;SDS011;65;48.778;9.160;2023-08-06T16:10:36;0.82;;;0.60;;
140;SDS011;65;48.778;9.160;2023-08-06T16:13:22;0.93;;;0.70;;
140;SDS011;65;48.778;9.160;2023-08-06T16:16:08;1.25;;;0.98;;
140;SDS011;65;48.778;9.160;2023-08-06T16:18:53;2.42;;;0.73;;
140;SDS011;65;48.778;9.160;2023-08-06T16:21:39;1.52;;;0.70;;
140;SDS011;65;48.778;9.160;2023-08-06T16:24:25;2.38;;;1.02;;
140;SDS011;65;48.778;9.160;2023-08-06T16:27:10;1.40;;;0.98;;
140;SDS011;65;48.778;9.160;2023-08-06T16:29:56;2.92;;;1.13;;
140;SDS011;65;48.778;9.160;2023-08-06T16:32:42;2.10;;;1.02;;
140;SDS011;65;48.778;9.160;2023-08-06T16:35:28;3.30;;;0.85;;
140;SDS011;65;48.778;9.160;2023-08-06T16:38:14;1.45;;;0.90;;
140;SDS011;65;48.778;9.160;2023-08-06T16:41:00;2.85;;;1.30;;
140;SDS011;65;48.778;9.160;2023-08-06T16:43:47;0.70;;;0.63;;
140;SDS011;65;48.778;9.160;2023-08-06T16:46:32;2.22;;;0.80;;
140;SDS011;65;48.778;9.160;2023-08-06T16:49:19;1.30;;;0.80;;
140;SDS011;65;48.778;9.160;2023-08-06T16:52:06;1.23;;;0.80;;
140;SDS011;65;48.778;9.160;2023-08-06T16:54:52;1.88;;;1.08;;
140;SDS011;65;48.778;9.160;2023-08-06T16:57:38;1.65;;;0.82;;
140;SDS011;65;48.778;9.160;2023-08-06T17:00:23;2.47;;;1.30;;
140;SDS011;65;48.778;9.160;2023-08-06T17:03:09;2.65;;;1.15;;
140;SDS011;65;48.778;9.160;2023-08-06T17:05:55;2.03;;;1.23;;
140;SDS011;65;48.778;9.160;2023-08-06T17:08:42;3.22;;;1.50;;
140;SDS011;65;48.778;9.160;2023-08-06T17:11:29;2.17;;;1.10;;
140;SDS011;65;48.778;9.160;2023-08-06T17:14:17;2.90;;;1.45;;
140;SDS011;65;48.778;9.160;2023-08-06T17:17:03;1.98;;;1.30;;
140;SDS011;65;48.778;9.160;2023-08-06T17:19:49;2.97;;;1.58;;
140;SDS011;65;48.778;9.160;2023-08-06T17:22:35;3.17;;;1.60;;
140;SDS011;65;48.778;9.160;2023-08-06T17:25:20;3.97;;;1.45;;
140;SDS011;65;48.778;9.160;2023-08-06T17:28:07;2.35;;;1.30;;
140;SDS011;65;48.778;9.160;2023-08-06T17:30:53;2.15;;;1.35;;
140;SDS011;65;48.778;9.160;2023-08-06T17:33:40;4.80;;;1.27;;
140;SDS011;65;48.778;9.160;2023-08-06T17:36:25;2.00;;;1.20;;
140;SDS011;65;48.778;9.160;2023-08-06T17:39:11;1.92;;;1.30;;
140;SDS011;65;48.778;9.160;2023-08-06T17:41:57;4.05;;;1.70;;
140;SDS011;65;48.778;9.160;2023-08-06T17:44:43;2.65;;;1.35;;
140;SDS011;65;48.778;9.160;2023-08-06T17:47:34;4.22;;;2.47;;
140;SDS011;65;48.778;9.160;2023-08-06T17:50:19;1.63;;;1.15;;
140;SDS011;65;48.778;9.160;2023-08-06T17:53:06;1.85;;;1.27;;
140;SDS011;65;48.778;9.160;2023-08-06T17:55:52;3.17;;;1.40;;
140;SDS011;65;48.778;9.160;2023-08-06T17:58:38;2.58;;;1.40;;
140;SDS011;65;48.778;9.160;2023-08-06T18:01:24;9.98;;;2.75;;
140;SDS011;65;48.778;9.160;2023-08-06T18:04:11;1.98;;;1.23;;
140;SDS011;65;48.778;9.160;2023-08-06T18:06:58;2.45;;;1.50;;
140;SDS011;65;48.778;9.160;2023-08-06T18:09:43;3.70;;;1.30;;
140;SDS011;65;48.778;9.160;2023-08-06T18:12:30;2.90;;;1.40;;
140;SDS011;65;48.778;9.160;2023-08-06T18:15:15;2.10;;;1.13;;
140;SDS011;65;48.778;9.160;2023-08-06T18:18:01;3.08;;;1.50;;